createdAt,value
2022-12-04T10:24:10.070Z,266.54
2022-12-04T10:27:55.733Z,263.12
2022-12-04T10:31:15.054Z,258.65
2022-12-04T10:39:36.798Z,282.67
2022-12-04T10:43:08.928Z,292.79
2022-12-04T10:46:46.266Z,297.83
2022-12-04T10:54:38.671Z,271.62
2022-12-04T10:57:52.092Z,286.32
2022-12-04T11:01:14.917Z,303.73
2022-12-04T11:12:38.227Z,264.43
2022-12-04T11:19:40.281Z,296.12
2022-12-04T11:30:42.063Z,284.12
2022-12-04T11:34:09.186Z,300.52
2022-12-04T11:45:22.185Z,334.93
2022-12-04T11:48:44.500Z,289.40
2022-12-04T11:52:16.562Z,283.09
2022-12-04T11:55:40.387Z,532.11
2022-12-04T11:59:20.328Z,489.94
2022-12-04T12:03:09.292Z,378.74
2022-12-04T12:06:39.414Z,337.32
2022-12-04T12:10:01.854Z,340.51
2022-12-04T12:13:25.190Z,284.74
2022-12-04T12:16:51.604Z,288.28
2022-12-04T12:20:19.823Z,316.87
2022-12-04T12:24:04.141Z,281.65
2022-12-04T12:27:41.111Z,267.09
2022-12-04T12:31:12.687Z,277.86
2022-12-04T12:34:33.483Z,292.14
2022-12-04T12:37:52.266Z,329.61
2022-12-04T12:41:08.848Z,315.71
2022-12-04T12:44:25.341Z,326.69
2022-12-04T12:47:42.526Z,296.01
2022-12-04T12:54:54.844Z,302.38
2022-12-04T12:58:16.440Z,311.08
2022-12-04T13:01:42.933Z,309.99
2022-12-04T13:05:02.180Z,372.94
2022-12-04T13:08:28.018Z,326.65
2022-12-04T13:11:37.224Z,316.11
2022-12-04T13:15:03.613Z,356.39
2022-12-04T13:19:28.762Z,377.24
2022-12-04T13:31:39.909Z,313.57
2022-12-04T13:40:17.037Z,331.33
2022-12-04T14:07:41.086Z,366.45
2022-12-04T16:13:47.024Z,462.88
2022-12-04T16:17:29.250Z,476.15
2022-12-04T16:21:04.566Z,453.91
2022-12-04T16:24:40.104Z,464.03
2022-12-04T16:32:47.482Z,395.61
2022-12-04T16:36:18.927Z,371.10
